Time;durP1;ratioP1;P1;durP2;ratioP2;P2;SDS_P1;SDS_P2;PMS_P1;PMS_P2;Temp;Humidity;BMP_temperature;BMP_pressure;BME280_temperature;BME280_humidity;BME280_pressure;Samples;Min_cycle;Max_cycle;Signal;HPM_P1;HPM_P2
2023/04/13 00:05:17;;;;;;;11.02;5.22;;;5.70;99.90;;;;;;12490493;28;20521;-82
2023/04/13 00:11:19;;;;;;;10.13;4.10;;;5.70;99.90;;;;;;12507849;28;20066;-81
2023/04/13 00:17:21;;;;;;;6.22;3.13;;;5.70;99.90;;;;;;12495944;28;20131;-81
2023/04/13 00:23:23;;;;;;;5.28;2.60;;;5.80;99.90;;;;;;12477596;28;20109;-81
2023/04/13 00:29:25;;;;;;;5.57;2.65;;;5.80;99.90;;;;;;12480354;28;20060;-81
2023/04/13 00:35:26;;;;;;;9.85;2.78;;;5.80;99.90;;;;;;12482052;28;20161;-82
2023/04/13 00:41:28;;;;;;;8.98;2.95;;;5.80;99.90;;;;;;12491608;28;20042;-82
2023/04/13 00:47:35;;;;;;;9.35;2.47;;;5.60;99.90;;;;;;12482269;28;20410;-82
2023/04/13 00:53:37;;;;;;;8.40;2.55;;;5.60;99.90;;;;;;12472550;28;20046;-82
2023/04/13 00:59:39;;;;;;;5.80;1.88;;;5.40;99.90;;;;;;12497809;28;20108;-82
2023/04/13 01:06:06;;;;;;;3.60;1.98;;;5.50;99.90;;;;;;12497909;28;20049;-82
2023/04/13 01:12:17;;;;;;;4.72;2.05;;;5.40;99.90;;;;;;12491172;28;20069;-82
2023/04/13 01:18:22;;;;;;;3.17;1.40;;;5.40;99.90;;;;;;12479859;28;20103;-82
2023/04/13 01:24:52;;;;;;;5.95;1.50;;;5.40;99.90;;;;;;12503277;28;20041;-82
2023/04/13 01:30:56;;;;;;;3.28;1.63;;;5.50;99.90;;;;;;12488585;28;20057;-82
2023/04/13 01:37:03;;;;;;;3.63;1.25;;;5.40;99.90;;;;;;12520944;28;20136;-81
2023/04/13 01:43:06;;;;;;;2.67;1.13;;;5.50;99.90;;;;;;12495597;28;20045;-82
2023/04/13 01:49:09;;;;;;;4.55;1.25;;;5.50;99.90;;;;;;12506303;28;20056;-82
2023/04/13 01:55:12;;;;;;;4.13;1.20;;;5.50;99.90;;;;;;12516702;28;20490;-82
2023/04/13 02:01:15;;;;;;;1.83;0.80;;;5.60;99.90;;;;;;12494467;28;20069;-82
2023/04/13 02:07:17;;;;;;;5.93;1.08;;;5.80;99.90;;;;;;12488771;28;20060;-82
2023/04/13 02:13:19;;;;;;;1.45;0.68;;;5.90;99.90;;;;;;12492216;28;20103;-82
2023/04/13 02:19:21;;;;;;;4.22;0.95;;;6.00;99.90;;;;;;12498542;28;20073;-82
2023/04/13 02:25:26;;;;;;;4.05;1.27;;;6.10;99.90;;;;;;12497692;28;20049;-81
2023/04/13 02:31:30;;;;;;;1.90;0.60;;;6.00;99.90;;;;;;12503326;28;20061;-82
2023/04/13 02:37:32;;;;;;;2.72;0.70;;;6.10;99.90;;;;;;12516364;28;20045;-82
2023/04/13 02:43:34;;;;;;;4.15;0.80;;;6.20;99.90;;;;;;12471940;28;20468;-82
2023/04/13 02:49:36;;;;;;;5.03;1.05;;;6.30;99.90;;;;;;12497902;28;20085;-82
2023/04/13 02:55:38;;;;;;;3.72;1.00;;;6.30;99.90;;;;;;12469913;28;20072;-81
2023/04/13 03:01:40;;;;;;;3.08;0.98;;;6.10;99.90;;;;;;12501722;28;20049;-81
2023/04/13 03:07:44;;;;;;;2.67;1.02;;;6.00;99.90;;;;;;12506966;28;20061;-81
2023/04/13 03:13:46;;;;;;;2.92;1.30;;;6.00;99.90;;;;;;12479920;28;20215;-81
2023/04/13 03:19:48;;;;;;;3.63;1.40;;;6.00;99.90;;;;;;12500516;28;20037;-81
2023/04/13 03:25:50;;;;;;;4.70;1.23;;;6.00;99.90;;;;;;12487736;28;20042;-81
2023/04/13 03:31:52;;;;;;;3.58;1.30;;;5.90;99.90;;;;;;12479382;28;20058;-81
2023/04/13 03:37:54;;;;;;;4.05;1.27;;;5.90;99.90;;;;;;12481144;28;20041;-81
2023/04/13 03:43:57;;;;;;;4.60;1.58;;;5.80;99.90;;;;;;12484582;28;20096;-81
2023/04/13 03:49:59;;;;;;;2.38;1.30;;;5.90;99.90;;;;;;12475483;28;20478;-81
2023/04/13 03:56:01;;;;;;;4.13;1.50;;;6.00;99.90;;;;;;12463400;28;20050;-81
2023/04/13 04:02:03;;;;;;;3.58;1.27;;;6.00;99.90;;;;;;12476480;28;20413;-81
2023/04/13 04:08:05;;;;;;;3.15;1.30;;;6.00;99.90;;;;;;12471281;28;20060;-81
2023/04/13 04:14:07;;;;;;;4.05;1.23;;;6.00;99.90;;;;;;12490859;28;20050;-81
2023/04/13 04:20:09;;;;;;;1.98;1.02;;;6.10;99.90;;;;;;12475721;28;20049;-81
2023/04/13 04:26:12;;;;;;;3.10;1.17;;;6.20;99.90;;;;;;12474171;28;20068;-81
2023/04/13 04:32:17;;;;;;;5.63;1.00;;;6.30;99.90;;;;;;12489249;28;20061;-81
2023/04/13 04:38:20;;;;;;;;;;;6.30;99.90;;;;;;12476506;28;20057;-81
2023/04/13 04:44:23;;;;;;;3.38;1.00;;;6.40;99.90;;;;;;12494981;28;20012;-81
2023/04/13 04:50:26;;;;;;;4.25;0.75;;;6.40;99.90;;;;;;12489948;28;21573;-81
2023/04/13 04:56:28;;;;;;;8.05;0.60;;;6.50;99.90;;;;;;12504251;28;20151;-81
2023/04/13 05:02:30;;;;;;;3.35;0.80;;;6.60;99.90;;;;;;12502349;28;20122;-81
2023/04/13 05:08:33;;;;;;;2.30;0.65;;;6.60;99.90;;;;;;12486231;28;20080;-81
2023/04/13 05:14:35;;;;;;;1.67;0.50;;;6.70;99.90;;;;;;12493436;28;20037;-81
2023/04/13 05:20:37;;;;;;;3.13;0.43;;;6.70;99.90;;;;;;12489075;28;20490;-81
2023/04/13 05:26:41;;;;;;;2.22;0.80;;;6.70;99.90;;;;;;12484794;28;20105;-81
2023/04/13 05:32:43;;;;;;;1.83;0.95;;;6.80;99.90;;;;;;12487583;28;20509;-80
2023/04/13 05:38:45;;;;;;;3.17;0.40;;;6.80;99.90;;;;;;12495249;28;20041;-80
2023/04/13 05:44:47;;;;;;;3.03;0.50;;;6.70;99.90;;;;;;12477389;28;20046;-81
2023/04/13 05:50:49;;;;;;;2.17;0.52;;;6.70;99.90;;;;;;12481195;28;20196;-81
2023/04/13 05:56:51;;;;;;;1.73;0.50;;;6.60;99.90;;;;;;12487332;28;21468;-80
2023/04/13 06:02:53;;;;;;;2.38;0.30;;;6.70;99.90;;;;;;12494535;28;20060;-80
2023/04/13 06:08:55;;;;;;;3.45;0.60;;;6.80;99.90;;;;;;12490502;28;20327;-80
2023/04/13 06:14:58;;;;;;;1.67;0.50;;;6.80;99.90;;;;;;12481709;28;20050;-82
2023/04/13 06:21:00;;;;;;;1.15;0.35;;;6.90;99.90;;;;;;12478097;28;20056;-81
2023/04/13 06:27:03;;;;;;;2.08;0.60;;;7.10;99.90;;;;;;12473817;28;20086;-81
2023/04/13 06:33:05;;;;;;;1.50;0.50;;;7.20;99.90;;;;;;12494261;28;20049;-80
2023/04/13 06:39:10;;;;;;;0.98;0.40;;;7.20;99.90;;;;;;12496473;28;20037;-80
2023/04/13 06:45:12;;;;;;;2.55;0.52;;;7.20;99.90;;;;;;12476273;28;20549;-80
2023/04/13 06:51:17;;;;;;;2.75;0.52;;;7.20;99.90;;;;;;12477885;28;20050;-81
2023/04/13 06:57:19;;;;;;;2.35;0.52;;;7.10;99.90;;;;;;12501801;28;20049;-81
2023/04/13 07:03:21;;;;;;;1.30;0.45;;;7.10;99.90;;;;;;12485835;28;20053;-80
2023/04/13 07:09:23;;;;;;;2.13;0.68;;;7.00;99.90;;;;;;12469485;28;20066;-80
2023/04/13 07:15:25;;;;;;;1.30;0.55;;;6.90;99.90;;;;;;12477540;28;20037;-80
2023/04/13 07:21:27;;;;;;;2.17;0.73;;;7.10;99.90;;;;;;12493266;28;20056;-80
2023/04/13 07:27:29;;;;;;;2.05;0.80;;;7.10;99.90;;;;;;12493285;28;20070;-80
2023/04/13 07:33:31;;;;;;;3.15;1.25;;;7.30;99.90;;;;;;12478973;28;20047;-80
2023/04/13 07:39:34;;;;;;;3.08;1.52;;;7.60;99.90;;;;;;12511293;28;20074;-80
2023/04/13 07:45:36;;;;;;;4.30;1.38;;;8.00;99.90;;;;;;12471583;28;20395;-81
2023/04/13 07:51:42;;;;;;;2.58;1.15;;;8.00;99.90;;;;;;12497298;28;20061;-80
2023/04/13 07:57:44;;;;;;;2.35;1.13;;;8.50;99.90;;;;;;12486092;28;20065;-80
2023/04/13 08:03:46;;;;;;;2.58;0.80;;;8.60;99.90;;;;;;12496798;28;20414;-81
2023/04/13 08:09:51;;;;;;;2.28;0.80;;;8.30;99.90;;;;;;12500354;28;20058;-80
2023/04/13 08:15:55;;;;;;;3.83;1.38;;;7.90;99.90;;;;;;12490830;28;20038;-80
2023/04/13 08:21:58;;;;;;;9.80;2.00;;;7.70;99.90;;;;;;12507554;28;20049;-80
2023/04/13 08:28:00;;;;;;;6.15;1.90;;;7.70;99.90;;;;;;12496461;28;20069;-80
2023/04/13 08:34:03;;;;;;;4.28;1.90;;;8.40;99.90;;;;;;12492748;28;20045;-81
2023/04/13 08:40:06;;;;;;;3.60;1.80;;;9.00;99.90;;;;;;12500608;28;20406;-80
2023/04/13 08:46:08;;;;;;;3.90;2.00;;;9.60;99.90;;;;;;12443018;28;20042;-81
2023/04/13 08:52:10;;;;;;;3.88;1.75;;;9.80;99.90;;;;;;12479755;28;20049;-80
2023/04/13 08:58:23;;;;;;;4.75;1.88;;;9.90;99.90;;;;;;12492290;28;20046;-80
2023/04/13 09:04:29;;;;;;;3.35;1.52;;;10.30;99.90;;;;;;12505356;28;20060;-81
2023/04/13 09:10:32;;;;;;;4.40;1.40;;;10.40;99.90;;;;;;12490666;28;20056;-81
2023/04/13 09:16:39;;;;;;;2.73;1.50;;;10.10;99.90;;;;;;12499591;28;20056;-81
2023/04/13 09:22:42;;;;;;;4.43;1.45;;;9.80;99.90;;;;;;12519415;28;20045;-82
2023/04/13 09:28:50;;;;;;;5.30;1.20;;;9.70;99.90;;;;;;12511980;28;20061;-81
2023/04/13 09:34:58;;;;;;;2.85;1.10;;;10.20;99.90;;;;;;12542770;28;20038;-80
2023/04/13 09:41:00;;;;;;;3.83;1.55;;;9.80;99.90;;;;;;12575202;28;20057;-80
2023/04/13 09:47:03;;;;;;;3.53;0.77;;;10.10;99.90;;;;;;12565556;28;20059;-81
2023/04/13 09:53:08;;;;;;;1.50;0.60;;;10.70;99.90;;;;;;12526761;28;20092;-83
2023/04/13 09:59:11;;;;;;;0.98;0.50;;;10.50;99.90;;;;;;12522349;28;20057;-80
2023/04/13 10:05:13;;;;;;;2.17;0.63;;;10.40;99.90;;;;;;12512519;28;20721;-81
2023/04/13 10:11:18;;;;;;;;;;;11.10;99.90;;;;;;12526222;28;20065;-80
2023/04/13 10:17:33;;;;;;;3.05;0.82;;;10.70;99.90;;;;;;12517848;28;20231;-80
2023/04/13 10:23:38;;;;;;;2.47;0.75;;;10.50;99.90;;;;;;12485329;28;20062;-81
2023/04/13 10:29:41;;;;;;;3.17;0.70;;;10.10;99.90;;;;;;12497510;28;20198;-79
2023/04/13 10:35:55;;;;;;;2.85;0.70;;;10.10;99.90;;;;;;12530782;28;20111;-80
2023/04/13 10:42:02;;;;;;;3.10;0.90;;;10.10;99.90;;;;;;12533023;28;20045;-81
2023/04/13 10:48:05;;;;;;;1.40;0.90;;;10.10;99.90;;;;;;12524856;28;20061;-79
2023/04/13 10:54:11;;;;;;;3.28;1.10;;;9.80;99.90;;;;;;12504857;28;20049;-80
2023/04/13 11:00:20;;;;;;;3.63;1.10;;;9.50;99.90;;;;;;12507232;28;20083;-80
2023/04/13 11:06:38;;;;;;;2.47;1.35;;;9.40;99.90;;;;;;12513503;28;20113;-80
2023/04/13 11:12:51;;;;;;;3.65;1.70;;;9.50;99.90;;;;;;12505841;28;20057;-80
2023/04/13 11:19:04;;;;;;;3.58;1.60;;;9.80;99.90;;;;;;12507556;28;20042;-80
2023/04/13 11:25:08;;;;;;;3.38;1.52;;;10.40;99.90;;;;;;12515080;28;20042;-81
2023/04/13 11:31:11;;;;;;;2.67;1.50;;;10.50;99.90;;;;;;12523668;28;20056;-80
2023/04/13 11:37:13;;;;;;;5.40;1.35;;;11.10;99.90;;;;;;12512952;28;20558;-81
2023/04/13 11:43:16;;;;;;;3.80;1.17;;;11.50;99.90;;;;;;12517738;28;20076;-81
2023/04/13 11:49:18;;;;;;;3.42;1.10;;;11.50;99.90;;;;;;12510794;28;20057;-80
2023/04/13 11:55:24;;;;;;;3.97;1.20;;;11.30;99.90;;;;;;12515588;28;20041;-81
2023/04/13 12:01:25;;;;;;;3.60;1.40;;;11.00;99.90;;;;;;12518455;28;20041;-81
2023/04/13 12:07:39;;;;;;;6.47;1.42;;;10.70;99.90;;;;;;12521186;28;20103;-80
2023/04/13 12:13:52;;;;;;;5.43;1.55;;;10.80;99.90;;;;;;12509587;28;20049;-81
2023/04/13 12:20:14;;;;;;;3.65;1.55;;;11.00;99.90;;;;;;12521927;28;20053;-81
2023/04/13 12:26:18;;;;;;;4.28;1.80;;;11.00;99.90;;;;;;12521018;28;20571;-81
2023/04/13 12:32:47;;;;;;;5.78;1.67;;;11.40;99.90;;;;;;12509100;28;20072;-80
2023/04/13 12:38:49;;;;;;;3.22;1.67;;;11.50;99.90;;;;;;12501716;28;20045;-81
2023/04/13 12:44:51;;;;;;;4.93;1.65;;;12.20;99.90;;;;;;12493880;28;20168;-81
2023/04/13 12:50:53;;;;;;;4.80;1.58;;;12.10;99.90;;;;;;12497296;28;20050;-82
2023/04/13 12:56:56;;;;;;;3.67;1.40;;;11.60;99.90;;;;;;12498253;28;20034;-81
2023/04/13 13:02:59;;;;;;;5.15;1.95;;;11.10;99.90;;;;;;12494043;28;20057;-80
2023/04/13 13:09:14;;;;;;;6.15;1.98;;;11.00;99.90;;;;;;12503834;28;20045;-82
2023/04/13 13:15:16;;;;;;;4.10;1.80;;;11.20;99.90;;;;;;12518714;28;20041;-82
2023/04/13 13:21:22;;;;;;;5.05;1.90;;;11.30;99.90;;;;;;12518760;28;20069;-81
2023/04/13 13:27:25;;;;;;;7.18;2.15;;;12.50;99.90;;;;;;12508554;28;20140;-81
2023/04/13 13:33:31;;;;;;;4.20;1.55;;;13.20;99.90;;;;;;12522873;28;20069;-81
2023/04/13 13:39:34;;;;;;;7.28;1.95;;;13.40;99.90;;;;;;12527117;28;20310;-80
2023/04/13 13:45:36;;;;;;;3.33;1.80;;;13.50;99.90;;;;;;12521700;28;20470;-81
2023/04/13 13:51:38;;;;;;;6.05;1.90;;;12.90;99.90;;;;;;12523206;28;20054;-81
2023/04/13 13:57:40;;;;;;;4.82;1.60;;;12.80;99.90;;;;;;12523900;28;20045;-81
2023/04/13 14:03:43;;;;;;;7.28;1.95;;;13.20;99.90;;;;;;12528692;28;20045;-81
2023/04/13 14:09:47;;;;;;;5.60;1.90;;;13.60;99.90;;;;;;12528947;28;20476;-81
2023/04/13 14:15:51;;;;;;;8.20;2.15;;;13.00;99.90;;;;;;12520329;28;20053;-81
2023/04/13 14:21:55;;;;;;;4.82;1.50;;;12.50;99.90;;;;;;12532653;28;20049;-80
2023/04/13 14:27:57;;;;;;;6.70;1.90;;;12.40;99.90;;;;;;12532776;28;20045;-81
2023/04/13 14:34:00;;;;;;;5.03;1.45;;;12.30;99.90;;;;;;12504058;28;20038;-80
2023/04/13 14:40:07;;;;;;;4.78;1.73;;;12.80;99.90;;;;;;12505256;28;20060;-81
2023/04/13 14:46:14;;;;;;;5.07;1.65;;;12.70;99.90;;;;;;12496900;28;20589;-83
2023/04/13 14:52:17;;;;;;;5.25;1.80;;;12.90;99.90;;;;;;12495396;28;20073;-81
2023/04/13 14:58:20;;;;;;;5.03;1.67;;;12.20;99.90;;;;;;12499469;28;20052;-81
2023/04/13 15:04:22;;;;;;;5.10;1.85;;;12.10;99.90;;;;;;12493672;28;20057;-80
2023/04/13 15:10:27;;;;;;;10.18;1.85;;;11.80;99.90;;;;;;12499721;28;20066;-80
2023/04/13 15:16:29;;;;;;;4.38;1.45;;;11.50;99.90;;;;;;12485209;28;20379;-81
2023/04/13 15:22:34;;;;;;;5.65;1.60;;;11.00;99.90;;;;;;12484652;28;20044;-80
2023/04/13 15:28:36;;;;;;;3.75;1.48;;;10.70;99.90;;;;;;12472821;28;20546;-80
2023/04/13 15:34:39;;;;;;;4.10;1.90;;;10.70;99.90;;;;;;12484136;28;20049;-81
2023/04/13 15:40:42;;;;;;;5.03;1.77;;;11.00;99.90;;;;;;12486619;28;20462;-80
2023/04/13 15:46:46;;;;;;;5.10;1.60;;;11.10;99.90;;;;;;12496970;28;20058;-80
2023/04/13 15:52:48;;;;;;;5.82;1.83;;;11.30;99.90;;;;;;12492732;28;20045;-81
2023/04/13 15:58:50;;;;;;;5.32;2.25;;;11.50;99.90;;;;;;12508448;28;20099;-82
2023/04/13 16:04:53;;;;;;;6.63;2.08;;;11.80;99.90;;;;;;12500207;28;20049;-81
2023/04/13 16:10:55;;;;;;;4.20;1.60;;;12.60;99.90;;;;;;12496457;28;20196;-81
2023/04/13 16:16:58;;;;;;;6.70;1.83;;;13.20;99.90;;;;;;12509643;28;20053;-81
2023/04/13 16:23:03;;;;;;;4.72;1.77;;;13.30;99.90;;;;;;12499291;28;20053;-81
2023/04/13 16:29:06;;;;;;;4.82;1.40;;;13.60;99.90;;;;;;12491915;28;20058;-80
2023/04/13 16:35:09;;;;;;;6.25;1.70;;;13.70;99.90;;;;;;12506223;28;20052;-81
2023/04/13 16:41:11;;;;;;;4.78;1.33;;;13.10;99.90;;;;;;12509572;28;20245;-81
2023/04/13 16:47:14;;;;;;;4.80;1.52;;;13.00;99.90;;;;;;12478370;28;20112;-81
2023/04/13 16:53:17;;;;;;;5.80;1.88;;;12.40;99.90;;;;;;12489707;28;20053;-80
2023/04/13 16:59:20;;;;;;;6.68;1.60;;;12.20;99.90;;;;;;12484828;28;20068;-81
2023/04/13 17:05:27;;;;;;;5.13;1.48;;;12.60;99.90;;;;;;12481245;28;20103;-82
2023/04/13 17:11:29;;;;;;;7.78;1.65;;;12.60;99.90;;;;;;12481002;28;20054;-80
2023/04/13 17:17:31;;;;;;;6.53;1.90;;;12.70;99.90;;;;;;12488317;28;20132;-81
2023/04/13 17:23:33;;;;;;;5.60;1.50;;;12.40;99.90;;;;;;12476934;28;20061;-81
2023/04/13 17:29:36;;;;;;;6.47;1.98;;;12.40;99.90;;;;;;12518109;28;20100;-81
2023/04/13 17:35:38;;;;;;;5.93;1.87;;;12.10;99.90;;;;;;12491749;28;20069;-81
2023/04/13 17:41:41;;;;;;;6.80;2.08;;;12.00;99.90;;;;;;12469661;28;20041;-81
2023/04/13 17:47:43;;;;;;;9.02;2.60;;;11.80;99.90;;;;;;12498415;28;20503;-80
2023/04/13 17:53:45;;;;;;;6.88;2.25;;;11.50;99.90;;;;;;12493097;28;20045;-80
2023/04/13 17:59:47;;;;;;;8.85;3.78;;;11.00;99.90;;;;;;12511551;28;20045;-80
2023/04/13 18:05:49;;;;;;;10.93;3.88;;;10.50;99.90;;;;;;12502579;28;20053;-80
2023/04/13 18:11:51;;;;;;;8.32;2.22;;;10.10;99.90;;;;;;12489866;28;20497;-79
2023/04/13 18:17:53;;;;;;;7.40;2.17;;;9.90;99.90;;;;;;12513241;28;20081;-80
2023/04/13 18:23:55;;;;;;;7.15;2.50;;;9.60;99.90;;;;;;12501026;28;20048;-80
2023/04/13 18:29:57;;;;;;;5.68;2.40;;;9.30;99.90;;;;;;12479143;28;20055;-80
2023/04/13 18:36:00;;;;;;;11.07;2.13;;;9.10;99.90;;;;;;12504271;28;20053;-80
2023/04/13 18:42:02;;;;;;;5.88;2.20;;;8.90;99.90;;;;;;12494695;28;20048;-81
2023/04/13 18:48:05;;;;;;;7.65;2.08;;;8.60;99.90;;;;;;12473618;28;20049;-80
2023/04/13 18:54:07;;;;;;;9.45;2.58;;;8.30;99.90;;;;;;12451704;28;20060;-80
2023/04/13 19:00:10;;;;;;;7.10;2.55;;;8.00;99.90;;;;;;12457872;28;20405;-80
2023/04/13 19:06:12;;;;;;;7.65;2.22;;;7.90;99.90;;;;;;12461621;28;20072;-81
2023/04/13 19:12:14;;;;;;;10.70;2.65;;;7.60;99.90;;;;;;12472353;28;20050;-80
2023/04/13 19:18:17;;;;;;;8.30;2.95;;;7.50;99.90;;;;;;12458062;28;20136;-81
2023/04/13 19:24:19;;;;;;;3.80;1.88;;;7.50;99.90;;;;;;12471725;28;20045;-82
2023/04/13 19:30:22;;;;;;;10.55;2.55;;;7.40;99.90;;;;;;12448091;28;20076;-81
2023/04/13 19:36:23;;;;;;;10.10;2.67;;;7.30;99.90;;;;;;12479605;28;20053;-80
2023/04/13 19:42:27;;;;;;;7.35;2.17;;;7.40;99.90;;;;;;12499007;28;20064;-81
2023/04/13 19:48:29;;;;;;;7.35;2.55;;;7.30;99.90;;;;;;12500105;28;20048;-81
2023/04/13 19:54:32;;;;;;;7.55;2.50;;;7.10;99.90;;;;;;12501750;28;20053;-81
2023/04/13 20:00:35;;;;;;;9.13;2.83;;;7.00;99.90;;;;;;12497070;28;20052;-81
2023/04/13 20:06:37;;;;;;;9.60;3.00;;;6.90;99.90;;;;;;12506804;28;20117;-80
2023/04/13 20:12:39;;;;;;;9.75;2.58;;;6.90;99.90;;;;;;12499305;28;20054;-80
2023/04/13 20:18:42;;;;;;;11.95;2.92;;;6.80;99.90;;;;;;12499847;28;20037;-80
2023/04/13 20:24:44;;;;;;;5.68;2.55;;;6.50;99.90;;;;;;12478563;28;20472;-80
2023/04/13 20:30:46;;;;;;;8.00;2.42;;;6.50;99.90;;;;;;12497844;28;20539;-80
2023/04/13 20:36:48;;;;;;;11.23;2.83;;;6.70;99.90;;;;;;12475952;28;20239;-80
2023/04/13 20:42:50;;;;;;;7.85;2.85;;;6.50;99.90;;;;;;12504902;28;20505;-80
2023/04/13 20:48:52;;;;;;;6.82;3.03;;;6.20;99.90;;;;;;12463366;28;20046;-81
2023/04/13 20:54:55;;;;;;;8.45;2.67;;;6.00;99.90;;;;;;12484782;28;20354;-81
2023/04/13 21:00:57;;;;;;;9.68;2.72;;;6.20;99.90;;;;;;12486067;28;20042;-82
2023/04/13 21:07:01;;;;;;;9.23;2.40;;;6.20;99.90;;;;;;12471265;28;20127;-80
2023/04/13 21:13:04;;;;;;;8.13;2.40;;;6.30;99.90;;;;;;12502704;28;20112;-82
2023/04/13 21:19:07;;;;;;;9.43;2.55;;;6.40;99.90;;;;;;12481060;28;20052;-80
2023/04/13 21:25:09;;;;;;;7.18;2.13;;;6.50;99.90;;;;;;12478278;28;20146;-80
2023/04/13 21:31:11;;;;;;;7.35;2.30;;;6.50;99.90;;;;;;12488313;28;20072;-81
2023/04/13 21:37:13;;;;;;;7.82;2.13;;;6.50;99.90;;;;;;12513458;28;20045;-80
2023/04/13 21:43:15;;;;;;;5.57;1.92;;;6.30;99.90;;;;;;12534701;28;20065;-81
2023/04/13 21:49:17;;;;;;;4.82;1.90;;;6.40;99.90;;;;;;12524107;28;20301;-81
2023/04/13 21:55:19;;;;;;;8.65;1.88;;;6.30;99.90;;;;;;12513330;28;20049;-82
2023/04/13 22:01:22;;;;;;;6.40;1.40;;;6.20;99.90;;;;;;12537791;28;20148;-81
2023/04/13 22:07:24;;;;;;;6.10;1.70;;;6.10;99.90;;;;;;12517103;28;20065;-80
2023/04/13 22:13:42;;;;;;;6.03;1.23;;;6.10;99.90;;;;;;12521704;28;20418;-81
2023/04/13 22:19:44;;;;;;;8.63;2.25;;;6.10;99.90;;;;;;12512835;28;20041;-80
2023/04/13 22:25:57;;;;;;;6.45;1.30;;;6.10;99.90;;;;;;12513656;28;20141;-80
2023/04/13 22:31:59;;;;;;;7.57;1.17;;;5.90;99.90;;;;;;12513643;28;20060;-81
2023/04/13 22:38:02;;;;;;;5.72;1.30;;;6.00;99.90;;;;;;12496622;28;20057;-80
2023/04/13 22:44:05;;;;;;;7.18;1.23;;;5.90;99.90;;;;;;12490358;28;20041;-82
2023/04/13 22:50:08;;;;;;;5.35;1.55;;;6.10;99.90;;;;;;12499385;28;20095;-80
2023/04/13 22:56:10;;;;;;;10.75;1.30;;;5.90;99.90;;;;;;12473040;28;20848;-82
2023/04/13 23:02:13;;;;;;;5.50;0.95;;;5.80;99.90;;;;;;12500246;28;20072;-81
2023/04/13 23:08:16;;;;;;;4.50;1.10;;;5.60;99.90;;;;;;12504515;28;20099;-81
2023/04/13 23:14:19;;;;;;;5.22;1.30;;;5.50;99.90;;;;;;12493555;28;20081;-81
2023/04/13 23:20:22;;;;;;;9.27;1.93;;;5.40;99.90;;;;;;12485152;28;20144;-81
2023/04/13 23:26:25;;;;;;;7.30;2.10;;;5.50;99.90;;;;;;12495595;28;20111;-80
2023/04/13 23:32:27;;;;;;;9.23;2.10;;;5.70;99.90;;;;;;12486404;28;20073;-81
2023/04/13 23:38:30;;;;;;;6.82;2.08;;;5.70;99.90;;;;;;12500901;28;20046;-81
2023/04/13 23:44:32;;;;;;;7.22;1.80;;;5.60;99.90;;;;;;12501037;28;20053;-81
2023/04/13 23:50:35;;;;;;;6.22;2.40;;;5.70;99.90;;;;;;12492894;28;20046;-82
2023/04/13 23:56:37;;;;;;;7.75;2.50;;;5.80;99.90;;;;;;12514732;28;20033;-82
